sensor_id;sensor_type;location;lat;lon;timestamp;P1;durP1;ratioP1;P2;durP2;ratioP2
11082;SDS011;5595;50.186;8.468;2022-07-11T00:02:38;6.40;;;3.22;;
11082;SDS011;5595;50.186;8.468;2022-07-11T00:08:29;4.90;;;3.70;;
11082;SDS011;5595;50.186;8.468;2022-07-11T00:14:00;4.95;;;3.25;;
11082;SDS011;5595;50.186;8.468;2022-07-11T00:16:44;4.00;;;3.45;;
11082;SDS011;5595;50.186;8.468;2022-07-11T00:19:12;3.35;;;3.03;;
11082;SDS011;5595;50.186;8.468;2022-07-11T00:21:48;4.18;;;3.20;;
11082;SDS011;5595;50.186;8.468;2022-07-11T00:24:17;4.47;;;2.33;;
11082;SDS011;5595;50.186;8.468;2022-07-11T00:29:49;6.47;;;3.35;;
11082;SDS011;5595;50.186;8.468;2022-07-11T00:35:19;3.45;;;3.15;;
11082;SDS011;5595;50.186;8.468;2022-07-11T00:37:46;3.50;;;3.20;;
11082;SDS011;5595;50.186;8.468;2022-07-11T00:40:14;4.18;;;3.33;;
11082;SDS011;5595;50.186;8.468;2022-07-11T00:45:55;6.55;;;3.58;;
11082;SDS011;5595;50.186;8.468;2022-07-11T00:48:39;5.68;;;3.78;;
11082;SDS011;5595;50.186;8.468;2022-07-11T00:51:06;4.63;;;3.67;;
11082;SDS011;5595;50.186;8.468;2022-07-11T00:53:36;6.03;;;3.85;;
11082;SDS011;5595;50.186;8.468;2022-07-11T00:56:06;6.50;;;3.85;;
11082;SDS011;5595;50.186;8.468;2022-07-11T00:58:33;6.00;;;3.30;;
11082;SDS011;5595;50.186;8.468;2022-07-11T01:01:01;4.97;;;3.42;;
11082;SDS011;5595;50.186;8.468;2022-07-11T01:03:28;6.72;;;4.50;;
11082;SDS011;5595;50.186;8.468;2022-07-11T01:05:55;6.22;;;3.78;;
11082;SDS011;5595;50.186;8.468;2022-07-11T01:08:40;6.57;;;3.88;;
11082;SDS011;5595;50.186;8.468;2022-07-11T01:11:08;6.82;;;3.85;;
11082;SDS011;5595;50.186;8.468;2022-07-11T01:13:37;5.38;;;3.47;;
11082;SDS011;5595;50.186;8.468;2022-07-11T01:16:12;4.68;;;3.85;;
11082;SDS011;5595;50.186;8.468;2022-07-11T01:18:55;5.85;;;3.78;;
11082;SDS011;5595;50.186;8.468;2022-07-11T01:21:23;5.38;;;3.53;;
11082;SDS011;5595;50.186;8.468;2022-07-11T01:23:55;4.05;;;3.20;;
11082;SDS011;5595;50.186;8.468;2022-07-11T01:26:23;7.75;;;4.25;;
11082;SDS011;5595;50.186;8.468;2022-07-11T01:31:52;3.90;;;3.58;;
11082;SDS011;5595;50.186;8.468;2022-07-11T01:34:19;3.70;;;3.40;;
11082;SDS011;5595;50.186;8.468;2022-07-11T01:36:46;5.20;;;4.45;;
11082;SDS011;5595;50.186;8.468;2022-07-11T01:39:17;5.85;;;4.32;;
11082;SDS011;5595;50.186;8.468;2022-07-11T01:41:44;8.15;;;5.05;;
11082;SDS011;5595;50.186;8.468;2022-07-11T01:44:11;10.27;;;4.93;;
11082;SDS011;5595;50.186;8.468;2022-07-11T01:46:38;8.98;;;5.85;;
11082;SDS011;5595;50.186;8.468;2022-07-11T01:49:05;6.75;;;5.13;;
11082;SDS011;5595;50.186;8.468;2022-07-11T01:51:32;8.55;;;5.30;;
11082;SDS011;5595;50.186;8.468;2022-07-11T01:57:23;7.18;;;5.30;;
11082;SDS011;5595;50.186;8.468;2022-07-11T02:03:12;5.50;;;4.90;;
11082;SDS011;5595;50.186;8.468;2022-07-11T02:09:00;4.65;;;4.25;;
11082;SDS011;5595;50.186;8.468;2022-07-11T02:11:27;7.00;;;5.07;;
11082;SDS011;5595;50.186;8.468;2022-07-11T02:13:55;4.55;;;3.95;;
11082;SDS011;5595;50.186;8.468;2022-07-11T02:16:23;8.32;;;4.55;;
11082;SDS011;5595;50.186;8.468;2022-07-11T02:18:49;9.07;;;4.72;;
11082;SDS011;5595;50.186;8.468;2022-07-11T02:21:16;4.88;;;3.67;;
11082;SDS011;5595;50.186;8.468;2022-07-11T02:23:43;5.25;;;4.03;;
11082;SDS011;5595;50.186;8.468;2022-07-11T02:26:10;8.18;;;4.60;;
11082;SDS011;5595;50.186;8.468;2022-07-11T02:28:37;7.75;;;4.10;;
11082;SDS011;5595;50.186;8.468;2022-07-11T02:31:06;5.03;;;3.80;;
11082;SDS011;5595;50.186;8.468;2022-07-11T02:33:33;11.77;;;4.63;;
11082;SDS011;5595;50.186;8.468;2022-07-11T02:36:00;6.90;;;3.90;;
11082;SDS011;5595;50.186;8.468;2022-07-11T02:38:27;4.80;;;4.32;;
11082;SDS011;5595;50.186;8.468;2022-07-11T02:40:54;4.45;;;3.72;;
11082;SDS011;5595;50.186;8.468;2022-07-11T02:43:21;5.05;;;3.95;;
11082;SDS011;5595;50.186;8.468;2022-07-11T02:45:57;7.32;;;4.25;;
11082;SDS011;5595;50.186;8.468;2022-07-11T02:48:25;8.68;;;3.70;;
11082;SDS011;5595;50.186;8.468;2022-07-11T02:53:37;5.57;;;4.30;;
11082;SDS011;5595;50.186;8.468;2022-07-11T02:59:05;7.35;;;4.30;;
11082;SDS011;5595;50.186;8.468;2022-07-11T03:01:38;6.00;;;4.20;;
11082;SDS011;5595;50.186;8.468;2022-07-11T03:04:07;5.72;;;4.25;;
11082;SDS011;5595;50.186;8.468;2022-07-11T03:09:24;6.72;;;4.35;;
11082;SDS011;5595;50.186;8.468;2022-07-11T03:11:54;6.55;;;4.35;;
11082;SDS011;5595;50.186;8.468;2022-07-11T03:14:20;5.57;;;3.90;;
11082;SDS011;5595;50.186;8.468;2022-07-11T03:19:50;7.45;;;4.97;;
11082;SDS011;5595;50.186;8.468;2022-07-11T03:22:20;9.02;;;4.60;;
11082;SDS011;5595;50.186;8.468;2022-07-11T03:24:48;9.18;;;5.03;;
11082;SDS011;5595;50.186;8.468;2022-07-11T03:30:04;7.70;;;4.90;;
11082;SDS011;5595;50.186;8.468;2022-07-11T03:35:55;6.70;;;5.07;;
11082;SDS011;5595;50.186;8.468;2022-07-11T03:41:44;6.18;;;4.68;;
11082;SDS011;5595;50.186;8.468;2022-07-11T03:47:28;5.40;;;3.88;;
11082;SDS011;5595;50.186;8.468;2022-07-11T03:49:55;5.65;;;3.85;;
11082;SDS011;5595;50.186;8.468;2022-07-11T03:52:23;7.88;;;4.00;;
11082;SDS011;5595;50.186;8.468;2022-07-11T03:57:48;5.13;;;3.67;;
11082;SDS011;5595;50.186;8.468;2022-07-11T04:00:15;5.97;;;4.43;;
11082;SDS011;5595;50.186;8.468;2022-07-11T04:02:44;8.38;;;4.18;;
11082;SDS011;5595;50.186;8.468;2022-07-11T04:08:14;4.57;;;3.70;;
11082;SDS011;5595;50.186;8.468;2022-07-11T04:10:41;7.53;;;3.75;;
11082;SDS011;5595;50.186;8.468;2022-07-11T04:13:08;5.43;;;3.13;;
11082;SDS011;5595;50.186;8.468;2022-07-11T04:15:35;4.88;;;3.40;;
11082;SDS011;5595;50.186;8.468;2022-07-11T04:18:02;6.47;;;3.33;;
11082;SDS011;5595;50.186;8.468;2022-07-11T04:20:29;6.70;;;3.83;;
11082;SDS011;5595;50.186;8.468;2022-07-11T04:22:56;4.13;;;3.17;;
11082;SDS011;5595;50.186;8.468;2022-07-11T04:25:24;8.10;;;3.47;;
11082;SDS011;5595;50.186;8.468;2022-07-11T04:27:51;3.72;;;2.58;;
11082;SDS011;5595;50.186;8.468;2022-07-11T04:30:18;3.85;;;3.15;;
11082;SDS011;5595;50.186;8.468;2022-07-11T04:32:45;7.18;;;2.83;;
11082;SDS011;5595;50.186;8.468;2022-07-11T04:38:12;3.83;;;2.90;;
11082;SDS011;5595;50.186;8.468;2022-07-11T04:40:43;6.35;;;3.42;;
11082;SDS011;5595;50.186;8.468;2022-07-11T04:43:10;6.95;;;3.47;;
11082;SDS011;5595;50.186;8.468;2022-07-11T04:48:30;5.43;;;2.75;;
11082;SDS011;5595;50.186;8.468;2022-07-11T04:54:07;7.68;;;2.85;;
11082;SDS011;5595;50.186;8.468;2022-07-11T04:56:36;5.88;;;3.42;;
11082;SDS011;5595;50.186;8.468;2022-07-11T04:59:03;5.40;;;3.13;;
11082;SDS011;5595;50.186;8.468;2022-07-11T05:01:31;9.40;;;3.55;;
11082;SDS011;5595;50.186;8.468;2022-07-11T05:03:57;4.07;;;3.00;;
11082;SDS011;5595;50.186;8.468;2022-07-11T05:06:24;7.68;;;3.78;;
11082;SDS011;5595;50.186;8.468;2022-07-11T05:08:51;6.28;;;3.72;;
11082;SDS011;5595;50.186;8.468;2022-07-11T05:11:19;6.13;;;3.28;;
11082;SDS011;5595;50.186;8.468;2022-07-11T05:13:47;7.05;;;4.03;;
11082;SDS011;5595;50.186;8.468;2022-07-11T05:19:38;6.18;;;5.40;;
11082;SDS011;5595;50.186;8.468;2022-07-11T05:25:27;7.93;;;5.20;;
11082;SDS011;5595;50.186;8.468;2022-07-11T05:27:54;5.93;;;5.32;;
11082;SDS011;5595;50.186;8.468;2022-07-11T05:30:22;8.63;;;5.60;;
11082;SDS011;5595;50.186;8.468;2022-07-11T05:33:04;6.57;;;5.32;;
11082;SDS011;5595;50.186;8.468;2022-07-11T05:35:31;5.53;;;4.53;;
11082;SDS011;5595;50.186;8.468;2022-07-11T05:37:58;7.35;;;5.15;;
11082;SDS011;5595;50.186;8.468;2022-07-11T05:40:25;8.20;;;5.68;;
11082;SDS011;5595;50.186;8.468;2022-07-11T05:42:52;5.20;;;4.47;;
11082;SDS011;5595;50.186;8.468;2022-07-11T05:45:19;9.32;;;6.13;;
11082;SDS011;5595;50.186;8.468;2022-07-11T05:47:47;5.95;;;5.03;;
11082;SDS011;5595;50.186;8.468;2022-07-11T05:50:14;6.80;;;4.80;;
11082;SDS011;5595;50.186;8.468;2022-07-11T05:52:41;6.88;;;4.88;;
11082;SDS011;5595;50.186;8.468;2022-07-11T05:55:08;8.50;;;5.03;;
11082;SDS011;5595;50.186;8.468;2022-07-11T05:57:35;3.67;;;3.38;;
11082;SDS011;5595;50.186;8.468;2022-07-11T06:00:02;5.63;;;3.78;;
11082;SDS011;5595;50.186;8.468;2022-07-11T06:02:29;3.05;;;2.80;;
11082;SDS011;5595;50.186;8.468;2022-07-11T06:04:57;2.92;;;2.50;;
11082;SDS011;5595;50.186;8.468;2022-07-11T06:07:24;4.40;;;3.28;;
11082;SDS011;5595;50.186;8.468;2022-07-11T06:16:50;2.90;;;2.55;;
11082;SDS011;5595;50.186;8.468;2022-07-11T06:22:40;3.17;;;1.73;;
11082;SDS011;5595;50.186;8.468;2022-07-11T06:28:29;1.73;;;1.58;;
11082;SDS011;5595;50.186;8.468;2022-07-11T06:37:35;3.03;;;1.38;;
11082;SDS011;5595;50.186;8.468;2022-07-11T06:40:03;1.92;;;1.38;;
11082;SDS011;5595;50.186;8.468;2022-07-11T06:42:35;3.17;;;1.50;;
11082;SDS011;5595;50.186;8.468;2022-07-11T06:48:15;2.72;;;1.20;;
11082;SDS011;5595;50.186;8.468;2022-07-11T06:53:43;3.25;;;0.98;;
11082;SDS011;5595;50.186;8.468;2022-07-11T06:56:27;0.73;;;0.73;;
11082;SDS011;5595;50.186;8.468;2022-07-11T06:58:54;1.27;;;0.77;;
11082;SDS011;5595;50.186;8.468;2022-07-11T07:01:33;0.88;;;0.88;;
11082;SDS011;5595;50.186;8.468;2022-07-11T07:04:00;2.55;;;0.70;;
11082;SDS011;5595;50.186;8.468;2022-07-11T07:06:33;2.08;;;0.88;;
11082;SDS011;5595;50.186;8.468;2022-07-11T07:09:00;0.70;;;0.70;;
11082;SDS011;5595;50.186;8.468;2022-07-11T07:14:33;1.55;;;1.02;;
11082;SDS011;5595;50.186;8.468;2022-07-11T07:17:06;2.95;;;1.40;;
11082;SDS011;5595;50.186;8.468;2022-07-11T07:19:33;1.73;;;1.17;;
11082;SDS011;5595;50.186;8.468;2022-07-11T07:25:22;2.67;;;1.23;;
11082;SDS011;5595;50.186;8.468;2022-07-11T07:31:12;2.35;;;1.30;;
11082;SDS011;5595;50.186;8.468;2022-07-11T07:40:23;2.53;;;1.58;;
11082;SDS011;5595;50.186;8.468;2022-07-11T07:46:13;2.13;;;1.50;;
11082;SDS011;5595;50.186;8.468;2022-07-11T08:01:34;2.10;;;1.60;;
11082;SDS011;5595;50.186;8.468;2022-07-11T08:04:01;1.65;;;1.55;;
11082;SDS011;5595;50.186;8.468;2022-07-11T08:06:29;2.50;;;1.40;;
11082;SDS011;5595;50.186;8.468;2022-07-11T08:12:19;2.00;;;1.70;;
11082;SDS011;5595;50.186;8.468;2022-07-11T08:17:39;2.28;;;1.55;;
11082;SDS011;5595;50.186;8.468;2022-07-11T08:20:10;3.42;;;1.70;;
11082;SDS011;5595;50.186;8.468;2022-07-11T08:22:37;3.08;;;1.65;;
11082;SDS011;5595;50.186;8.468;2022-07-11T08:28:08;2.50;;;2.10;;
11082;SDS011;5595;50.186;8.468;2022-07-11T08:30:44;4.05;;;1.80;;
11082;SDS011;5595;50.186;8.468;2022-07-11T08:33:13;2.35;;;2.08;;
11082;SDS011;5595;50.186;8.468;2022-07-11T08:35:53;6.45;;;2.65;;
11082;SDS011;5595;50.186;8.468;2022-07-11T08:38:20;2.55;;;2.35;;
11082;SDS011;5595;50.186;8.468;2022-07-11T08:40:48;2.75;;;2.33;;
11082;SDS011;5595;50.186;8.468;2022-07-11T08:43:16;3.42;;;2.50;;
11082;SDS011;5595;50.186;8.468;2022-07-11T08:45:48;2.80;;;2.58;;
11082;SDS011;5595;50.186;8.468;2022-07-11T08:48:19;2.83;;;2.55;;
11082;SDS011;5595;50.186;8.468;2022-07-11T08:50:46;3.30;;;2.13;;
11082;SDS011;5595;50.186;8.468;2022-07-11T08:53:14;2.88;;;2.55;;
11082;SDS011;5595;50.186;8.468;2022-07-11T08:55:42;2.15;;;2.00;;
11082;SDS011;5595;50.186;8.468;2022-07-11T08:58:09;2.30;;;2.10;;
11082;SDS011;5595;50.186;8.468;2022-07-11T09:00:37;3.17;;;2.08;;
11082;SDS011;5595;50.186;8.468;2022-07-11T09:03:04;3.67;;;2.20;;
11082;SDS011;5595;50.186;8.468;2022-07-11T09:05:52;1.80;;;1.70;;
11082;SDS011;5595;50.186;8.468;2022-07-11T09:08:20;4.18;;;2.42;;
11082;SDS011;5595;50.186;8.468;2022-07-11T09:10:48;2.53;;;1.80;;
11082;SDS011;5595;50.186;8.468;2022-07-11T09:13:16;2.25;;;2.03;;
11082;SDS011;5595;50.186;8.468;2022-07-11T09:18:45;3.88;;;2.17;;
11082;SDS011;5595;50.186;8.468;2022-07-11T09:21:14;3.15;;;2.60;;
11082;SDS011;5595;50.186;8.468;2022-07-11T09:24:00;3.80;;;2.10;;
11082;SDS011;5595;50.186;8.468;2022-07-11T09:26:47;5.15;;;2.10;;
11082;SDS011;5595;50.186;8.468;2022-07-11T09:29:15;2.13;;;1.98;;
11082;SDS011;5595;50.186;8.468;2022-07-11T09:31:45;2.05;;;1.92;;
11082;SDS011;5595;50.186;8.468;2022-07-11T09:34:12;2.75;;;2.00;;
11082;SDS011;5595;50.186;8.468;2022-07-11T09:36:43;1.92;;;1.83;;
11082;SDS011;5595;50.186;8.468;2022-07-11T09:39:12;3.30;;;1.95;;
11082;SDS011;5595;50.186;8.468;2022-07-11T09:45:09;2.30;;;2.10;;
11082;SDS011;5595;50.186;8.468;2022-07-11T09:47:41;2.60;;;2.38;;
11082;SDS011;5595;50.186;8.468;2022-07-11T09:50:09;4.03;;;2.10;;
11082;SDS011;5595;50.186;8.468;2022-07-11T09:52:39;2.15;;;2.00;;
11082;SDS011;5595;50.186;8.468;2022-07-11T09:55:09;1.70;;;1.50;;
11082;SDS011;5595;50.186;8.468;2022-07-11T10:00:29;1.92;;;1.58;;
11082;SDS011;5595;50.186;8.468;2022-07-11T10:05:58;1.30;;;1.17;;
11082;SDS011;5595;50.186;8.468;2022-07-11T10:11:43;1.00;;;1.00;;
11082;SDS011;5595;50.186;8.468;2022-07-11T10:14:13;0.90;;;0.82;;
11082;SDS011;5595;50.186;8.468;2022-07-11T10:16:43;0.60;;;0.60;;
11082;SDS011;5595;50.186;8.468;2022-07-11T10:19:25;1.15;;;1.05;;
11082;SDS011;5595;50.186;8.468;2022-07-11T10:22:08;3.72;;;1.75;;
11082;SDS011;5595;50.186;8.468;2022-07-11T10:24:45;1.60;;;1.42;;
11082;SDS011;5595;50.186;8.468;2022-07-11T10:27:21;2.10;;;1.90;;
11082;SDS011;5595;50.186;8.468;2022-07-11T10:29:56;2.10;;;1.70;;
11082;SDS011;5595;50.186;8.468;2022-07-11T10:32:23;1.50;;;1.40;;
11082;SDS011;5595;50.186;8.468;2022-07-11T10:35:05;2.65;;;1.83;;
11082;SDS011;5595;50.186;8.468;2022-07-11T10:37:45;2.35;;;1.60;;
11082;SDS011;5595;50.186;8.468;2022-07-11T10:40:13;1.10;;;1.10;;
11082;SDS011;5595;50.186;8.468;2022-07-11T10:42:42;1.77;;;1.23;;
11082;SDS011;5595;50.186;8.468;2022-07-11T10:45:10;0.93;;;0.80;;
11082;SDS011;5595;50.186;8.468;2022-07-11T10:47:41;1.08;;;1.00;;
11082;SDS011;5595;50.186;8.468;2022-07-11T10:53:00;2.45;;;0.90;;
11082;SDS011;5595;50.186;8.468;2022-07-11T11:02:11;2.92;;;1.33;;
11082;SDS011;5595;50.186;8.468;2022-07-11T11:08:02;1.10;;;1.10;;
11082;SDS011;5595;50.186;8.468;2022-07-11T11:17:35;2.05;;;1.00;;
11082;SDS011;5595;50.186;8.468;2022-07-11T11:23:25;1.65;;;0.90;;
11082;SDS011;5595;50.186;8.468;2022-07-11T11:28:56;1.50;;;0.90;;
11082;SDS011;5595;50.186;8.468;2022-07-11T11:31:24;1.85;;;0.70;;
11082;SDS011;5595;50.186;8.468;2022-07-11T11:33:53;0.70;;;0.70;;
11082;SDS011;5595;50.186;8.468;2022-07-11T11:36:21;3.60;;;0.95;;
11082;SDS011;5595;50.186;8.468;2022-07-11T11:38:49;0.90;;;0.90;;
11082;SDS011;5595;50.186;8.468;2022-07-11T11:41:20;2.28;;;0.80;;
11082;SDS011;5595;50.186;8.468;2022-07-11T11:43:48;0.43;;;0.43;;
11082;SDS011;5595;50.186;8.468;2022-07-11T11:46:16;0.43;;;0.43;;
11082;SDS011;5595;50.186;8.468;2022-07-11T11:48:43;0.98;;;0.77;;
11082;SDS011;5595;50.186;8.468;2022-07-11T11:54:35;0.57;;;0.57;;
11082;SDS011;5595;50.186;8.468;2022-07-11T11:57:04;2.90;;;0.68;;
11082;SDS011;5595;50.186;8.468;2022-07-11T11:59:33;0.40;;;0.40;;
11082;SDS011;5595;50.186;8.468;2022-07-11T12:02:04;0.93;;;0.60;;
11082;SDS011;5595;50.186;8.468;2022-07-11T12:04:32;2.28;;;0.80;;
11082;SDS011;5595;50.186;8.468;2022-07-11T12:10:10;4.10;;;1.25;;
11082;SDS011;5595;50.186;8.468;2022-07-11T12:15:50;1.25;;;1.15;;
11082;SDS011;5595;50.186;8.468;2022-07-11T12:18:36;3.40;;;0.90;;
11082;SDS011;5595;50.186;8.468;2022-07-11T12:21:11;1.85;;;1.20;;
11082;SDS011;5595;50.186;8.468;2022-07-11T12:26:37;0.80;;;0.80;;
11082;SDS011;5595;50.186;8.468;2022-07-11T12:31:53;0.65;;;0.60;;
11082;SDS011;5595;50.186;8.468;2022-07-11T12:34:41;1.67;;;0.82;;
11082;SDS011;5595;50.186;8.468;2022-07-11T12:37:13;0.95;;;0.90;;
11082;SDS011;5595;50.186;8.468;2022-07-11T12:39:46;0.80;;;0.80;;
11082;SDS011;5595;50.186;8.468;2022-07-11T12:42:27;1.10;;;1.00;;
11082;SDS011;5595;50.186;8.468;2022-07-11T12:44:57;0.95;;;0.65;;
11082;SDS011;5595;50.186;8.468;2022-07-11T12:47:25;0.80;;;0.80;;
11082;SDS011;5595;50.186;8.468;2022-07-11T12:49:53;0.73;;;0.73;;
11082;SDS011;5595;50.186;8.468;2022-07-11T12:52:20;0.90;;;0.90;;
11082;SDS011;5595;50.186;8.468;2022-07-11T12:54:47;0.77;;;0.77;;
11082;SDS011;5595;50.186;8.468;2022-07-11T12:57:15;0.82;;;0.70;;
11082;SDS011;5595;50.186;8.468;2022-07-11T12:59:44;0.70;;;0.70;;
11082;SDS011;5595;50.186;8.468;2022-07-11T13:02:12;3.42;;;0.90;;
11082;SDS011;5595;50.186;8.468;2022-07-11T13:04:45;0.93;;;0.90;;
11082;SDS011;5595;50.186;8.468;2022-07-11T13:07:29;2.10;;;0.60;;
11082;SDS011;5595;50.186;8.468;2022-07-11T13:10:15;1.23;;;1.13;;
11082;SDS011;5595;50.186;8.468;2022-07-11T13:12:45;1.45;;;0.85;;
11082;SDS011;5595;50.186;8.468;2022-07-11T13:15:15;1.15;;;1.15;;
11082;SDS011;5595;50.186;8.468;2022-07-11T13:17:47;1.35;;;1.15;;
11082;SDS011;5595;50.186;8.468;2022-07-11T13:23:37;0.90;;;0.90;;
11082;SDS011;5595;50.186;8.468;2022-07-11T13:26:05;1.95;;;1.20;;
11082;SDS011;5595;50.186;8.468;2022-07-11T13:28:37;1.10;;;1.00;;
11082;SDS011;5595;50.186;8.468;2022-07-11T13:31:06;2.00;;;1.10;;
11082;SDS011;5595;50.186;8.468;2022-07-11T13:33:34;1.70;;;1.60;;
11082;SDS011;5595;50.186;8.468;2022-07-11T13:36:03;1.48;;;1.38;;
11082;SDS011;5595;50.186;8.468;2022-07-11T13:38:30;1.08;;;1.05;;
11082;SDS011;5595;50.186;8.468;2022-07-11T13:40:57;1.40;;;1.30;;
11082;SDS011;5595;50.186;8.468;2022-07-11T13:43:25;1.38;;;1.10;;
11082;SDS011;5595;50.186;8.468;2022-07-11T13:45:52;1.90;;;1.17;;
11082;SDS011;5595;50.186;8.468;2022-07-11T13:48:20;0.93;;;0.93;;
11082;SDS011;5595;50.186;8.468;2022-07-11T13:50:47;1.40;;;1.30;;
11082;SDS011;5595;50.186;8.468;2022-07-11T13:53:14;1.40;;;1.30;;
11082;SDS011;5595;50.186;8.468;2022-07-11T13:55:41;1.45;;;1.38;;
11082;SDS011;5595;50.186;8.468;2022-07-11T13:58:09;1.42;;;1.30;;
11082;SDS011;5595;50.186;8.468;2022-07-11T14:00:50;3.58;;;1.02;;
11082;SDS011;5595;50.186;8.468;2022-07-11T14:03:17;1.08;;;1.08;;
11082;SDS011;5595;50.186;8.468;2022-07-11T14:05:46;1.77;;;1.30;;
11082;SDS011;5595;50.186;8.468;2022-07-11T14:08:13;1.23;;;1.13;;
11082;SDS011;5595;50.186;8.468;2022-07-11T14:10:41;1.00;;;1.00;;
11082;SDS011;5595;50.186;8.468;2022-07-11T14:13:09;1.58;;;1.10;;
11082;SDS011;5595;50.186;8.468;2022-07-11T14:15:37;2.20;;;1.35;;
11082;SDS011;5595;50.186;8.468;2022-07-11T14:24:35;1.17;;;1.17;;
11082;SDS011;5595;50.186;8.468;2022-07-11T14:30:27;2.08;;;1.60;;
11082;SDS011;5595;50.186;8.468;2022-07-11T14:39:43;7.68;;;1.73;;
11082;SDS011;5595;50.186;8.468;2022-07-11T14:45:31;1.60;;;1.50;;
11082;SDS011;5595;50.186;8.468;2022-07-11T14:48:04;1.25;;;1.00;;
11082;SDS011;5595;50.186;8.468;2022-07-11T14:50:32;1.20;;;0.95;;
11082;SDS011;5595;50.186;8.468;2022-07-11T14:53:00;1.50;;;1.02;;
11082;SDS011;5595;50.186;8.468;2022-07-11T14:55:33;1.75;;;0.98;;
11082;SDS011;5595;50.186;8.468;2022-07-11T14:58:03;2.35;;;1.30;;
11082;SDS011;5595;50.186;8.468;2022-07-11T15:00:30;1.55;;;1.27;;
11082;SDS011;5595;50.186;8.468;2022-07-11T15:06:22;0.70;;;0.70;;
11082;SDS011;5595;50.186;8.468;2022-07-11T15:09:09;1.33;;;0.85;;
11082;SDS011;5595;50.186;8.468;2022-07-11T15:11:55;0.60;;;0.60;;
11082;SDS011;5595;50.186;8.468;2022-07-11T15:18:02;1.75;;;0.90;;
11082;SDS011;5595;50.186;8.468;2022-07-11T15:20:50;1.10;;;1.00;;
11082;SDS011;5595;50.186;8.468;2022-07-11T15:23:17;1.13;;;1.02;;
11082;SDS011;5595;50.186;8.468;2022-07-11T15:26:08;0.73;;;0.73;;
11082;SDS011;5595;50.186;8.468;2022-07-11T15:31:58;0.90;;;0.90;;
11082;SDS011;5595;50.186;8.468;2022-07-11T15:37:47;0.95;;;0.80;;
11082;SDS011;5595;50.186;8.468;2022-07-11T15:40:14;2.70;;;1.23;;
11082;SDS011;5595;50.186;8.468;2022-07-11T15:42:41;1.60;;;1.23;;
11082;SDS011;5595;50.186;8.468;2022-07-11T15:48:13;1.25;;;1.02;;
11082;SDS011;5595;50.186;8.468;2022-07-11T15:50:46;1.83;;;1.08;;
11082;SDS011;5595;50.186;8.468;2022-07-11T15:53:14;1.10;;;1.00;;
11082;SDS011;5595;50.186;8.468;2022-07-11T15:55:40;1.42;;;1.33;;
11082;SDS011;5595;50.186;8.468;2022-07-11T15:58:07;1.15;;;1.02;;
11082;SDS011;5595;50.186;8.468;2022-07-11T16:03:46;1.33;;;0.90;;
11082;SDS011;5595;50.186;8.468;2022-07-11T16:06:28;1.17;;;1.13;;
11082;SDS011;5595;50.186;8.468;2022-07-11T16:08:56;1.38;;;1.27;;
11082;SDS011;5595;50.186;8.468;2022-07-11T16:11:33;1.85;;;1.10;;
11082;SDS011;5595;50.186;8.468;2022-07-11T16:14:00;1.23;;;0.98;;
11082;SDS011;5595;50.186;8.468;2022-07-11T16:16:27;2.40;;;1.17;;
11082;SDS011;5595;50.186;8.468;2022-07-11T16:18:56;1.27;;;1.15;;
11082;SDS011;5595;50.186;8.468;2022-07-11T16:24:28;2.95;;;1.00;;
11082;SDS011;5595;50.186;8.468;2022-07-11T16:27:10;2.65;;;1.05;;
11082;SDS011;5595;50.186;8.468;2022-07-11T16:29:37;1.08;;;0.90;;
11082;SDS011;5595;50.186;8.468;2022-07-11T16:32:17;4.05;;;1.10;;
11082;SDS011;5595;50.186;8.468;2022-07-11T16:34:46;0.73;;;0.73;;
11082;SDS011;5595;50.186;8.468;2022-07-11T16:37:13;0.93;;;0.90;;
11082;SDS011;5595;50.186;8.468;2022-07-11T16:39:40;1.35;;;1.05;;
11082;SDS011;5595;50.186;8.468;2022-07-11T16:45:36;1.92;;;0.90;;
11082;SDS011;5595;50.186;8.468;2022-07-11T16:48:04;2.28;;;1.13;;
11082;SDS011;5595;50.186;8.468;2022-07-11T16:50:32;1.48;;;1.10;;
11082;SDS011;5595;50.186;8.468;2022-07-11T16:52:59;0.60;;;0.60;;
11082;SDS011;5595;50.186;8.468;2022-07-11T16:55:29;2.22;;;0.80;;
11082;SDS011;5595;50.186;8.468;2022-07-11T16:57:57;1.15;;;0.82;;
11082;SDS011;5595;50.186;8.468;2022-07-11T17:00:24;1.10;;;0.77;;
11082;SDS011;5595;50.186;8.468;2022-07-11T17:06:02;1.55;;;0.93;;
11082;SDS011;5595;50.186;8.468;2022-07-11T17:11:52;2.95;;;1.08;;
11082;SDS011;5595;50.186;8.468;2022-07-11T17:17:20;0.70;;;0.70;;
11082;SDS011;5595;50.186;8.468;2022-07-11T17:26:17;1.25;;;0.65;;
11082;SDS011;5595;50.186;8.468;2022-07-11T17:32:06;0.60;;;0.30;;
11082;SDS011;5595;50.186;8.468;2022-07-11T17:37:55;0.40;;;0.40;;
11082;SDS011;5595;50.186;8.468;2022-07-11T17:46:20;0.28;;;0.28;;
11082;SDS011;5595;50.186;8.468;2022-07-11T17:48:47;0.68;;;0.30;;
11082;SDS011;5595;50.186;8.468;2022-07-11T17:51:14;2.22;;;0.30;;
11082;SDS011;5595;50.186;8.468;2022-07-11T17:53:42;0.47;;;0.30;;
11082;SDS011;5595;50.186;8.468;2022-07-11T17:56:10;0.38;;;0.30;;
11082;SDS011;5595;50.186;8.468;2022-07-11T17:58:38;1.85;;;0.47;;
11082;SDS011;5595;50.186;8.468;2022-07-11T18:01:06;0.40;;;0.40;;
11082;SDS011;5595;50.186;8.468;2022-07-11T18:03:33;0.85;;;0.43;;
11082;SDS011;5595;50.186;8.468;2022-07-11T18:08:52;0.73;;;0.40;;
11082;SDS011;5595;50.186;8.468;2022-07-11T18:11:20;0.30;;;0.30;;
11082;SDS011;5595;50.186;8.468;2022-07-11T18:13:47;1.15;;;0.40;;
11082;SDS011;5595;50.186;8.468;2022-07-11T18:19:20;0.80;;;0.30;;
11082;SDS011;5595;50.186;8.468;2022-07-11T18:21:47;0.95;;;0.30;;
11082;SDS011;5595;50.186;8.468;2022-07-11T18:24:14;0.30;;;0.30;;
11082;SDS011;5595;50.186;8.468;2022-07-11T18:30:03;0.30;;;0.30;;
11082;SDS011;5595;50.186;8.468;2022-07-11T18:38:50;0.30;;;0.30;;
11082;SDS011;5595;50.186;8.468;2022-07-11T18:44:56;0.80;;;0.40;;
11082;SDS011;5595;50.186;8.468;2022-07-11T18:50:47;0.38;;;0.38;;
11082;SDS011;5595;50.186;8.468;2022-07-11T18:59:34;0.98;;;0.50;;
11082;SDS011;5595;50.186;8.468;2022-07-11T19:05:24;0.40;;;0.40;;
11082;SDS011;5595;50.186;8.468;2022-07-11T19:11:07;0.30;;;0.30;;
11082;SDS011;5595;50.186;8.468;2022-07-11T19:13:52;1.23;;;0.22;;
11082;SDS011;5595;50.186;8.468;2022-07-11T19:16:19;0.40;;;0.20;;
11082;SDS011;5595;50.186;8.468;2022-07-11T19:21:36;0.45;;;0.40;;
11082;SDS011;5595;50.186;8.468;2022-07-11T19:27:04;0.47;;;0.43;;
11082;SDS011;5595;50.186;8.468;2022-07-11T19:29:31;1.27;;;0.30;;
11082;SDS011;5595;50.186;8.468;2022-07-11T19:32:00;0.20;;;0.20;;
11082;SDS011;5595;50.186;8.468;2022-07-11T19:34:32;0.88;;;0.30;;
11082;SDS011;5595;50.186;8.468;2022-07-11T19:36:59;0.50;;;0.30;;
11082;SDS011;5595;50.186;8.468;2022-07-11T19:39:27;0.40;;;0.40;;
11082;SDS011;5595;50.186;8.468;2022-07-11T19:41:54;0.30;;;0.30;;
11082;SDS011;5595;50.186;8.468;2022-07-11T19:44:23;0.30;;;0.30;;
11082;SDS011;5595;50.186;8.468;2022-07-11T19:46:50;2.20;;;0.60;;
11082;SDS011;5595;50.186;8.468;2022-07-11T19:49:35;2.50;;;0.47;;
11082;SDS011;5595;50.186;8.468;2022-07-11T19:52:03;1.23;;;0.35;;
11082;SDS011;5595;50.186;8.468;2022-07-11T19:54:39;0.40;;;0.40;;
11082;SDS011;5595;50.186;8.468;2022-07-11T19:57:23;3.15;;;1.25;;
11082;SDS011;5595;50.186;8.468;2022-07-11T19:59:52;0.40;;;0.30;;
11082;SDS011;5595;50.186;8.468;2022-07-11T20:02:22;0.32;;;0.30;;
11082;SDS011;5595;50.186;8.468;2022-07-11T20:07:35;0.38;;;0.38;;
11082;SDS011;5595;50.186;8.468;2022-07-11T20:10:02;0.90;;;0.52;;
11082;SDS011;5595;50.186;8.468;2022-07-11T20:12:30;0.30;;;0.30;;
11082;SDS011;5595;50.186;8.468;2022-07-11T20:18:20;0.40;;;0.40;;
11082;SDS011;5595;50.186;8.468;2022-07-11T20:24:09;2.25;;;0.30;;
11082;SDS011;5595;50.186;8.468;2022-07-11T20:26:51;0.73;;;0.38;;
11082;SDS011;5595;50.186;8.468;2022-07-11T20:29:18;0.30;;;0.30;;
11082;SDS011;5595;50.186;8.468;2022-07-11T20:38:22;0.57;;;0.30;;
11082;SDS011;5595;50.186;8.468;2022-07-11T20:40:49;1.95;;;0.35;;
11082;SDS011;5595;50.186;8.468;2022-07-11T20:43:20;1.95;;;0.40;;
11082;SDS011;5595;50.186;8.468;2022-07-11T20:49:08;0.32;;;0.32;;
11082;SDS011;5595;50.186;8.468;2022-07-11T20:51:44;0.40;;;0.40;;
11082;SDS011;5595;50.186;8.468;2022-07-11T20:54:12;0.30;;;0.30;;
11082;SDS011;5595;50.186;8.468;2022-07-11T20:56:52;0.32;;;0.30;;